Airfield :
LOGIN :

Register | Disclaimer

   EN    FR    IT 

 










Legend :    VFR   Marginal VFR   IFR   Intensive IFR   Very Intensive IFR
Visi :
Ceiling :
>= 8 km
>= 3000ft
5 to 8 km
1000 to 3000 ft
1500m to 5 km
500 to 1000 ft
800 to 1500m
200 to 500 ft
< 800m
< 200 ft
Symbols :   Thunderstorms  Fog  Heavy snow  Heavy precipitations  Wind > 20 kt
SIGMETs :     Misc.  Thunderstorms  Icing  Turbulence  Mountain Waves  Volcanic Ashes







- Airport Elevation : 187 ft


ETNW - Wunstorf AB

CURRENT METAR :
  • 301620Z AUTO 12021KT //// // ////// 15/M01 Q1012 ///

EXPIRED METARs :
  • 301520Z AUTO 11020G34KT //// // ////// 15/M01 Q1012 ///
  • 301420Z AUTO 10022KT //// // ////// 15/M01 Q1013 ///

TAF TAF ETNW
Valid from the 30 at 17:00 until the 01 at 17:00 UTC


301600Z 3017/0117 09010KT 9999 NSW FEW060
TEMPO 3017/3018 11015G25KT 9999 NSW SCT030
TEMPO 3018/0103 11012G22KT 9999 NSW SCT060 SCT180
TEMPO 0113/0117 11010KT 5000 -RA SCT010 BKN020 CANCEL BY ETGL
No reported NOTAMs for that airfield.



MET'MAP, your aeronautical weather chart ! - Copyright ORBIFLY December 2007 - Disclaimer

ORBIFLY MET'MAP TEAM :

Programming & Development : Alexandra Zaïnal
Concept & Development : Baudouin d'Aumeries
Co-Development & Prog : Marc-Olivier Méhu
Technical & hardware support : Manuel Goepfert

Contact : metmap@orbifly.com




SOURCES & CREDITS :

   NOAA